Time;durP1;ratioP1;P1;durP2;ratioP2;P2;SDS_P1;SDS_P2;PMS_P1;PMS_P2;Temp;Humidity;BMP_temperature;BMP_pressure;BME280_temperature;BME280_humidity;BME280_pressure;Samples;Min_cycle;Max_cycle;Signal;HPM_P1;HPM_P2
2022/03/01 00:00:08;;;;;;;20.40;12.20;;;-1.00;46.70;;;;;;5027914;28;20545;-68
2022/03/01 00:02:35;;;;;;;23.55;12.68;;;-1.10;46.80;;;;;;5023548;28;20634;-68
2022/03/01 00:05:02;;;;;;;28.00;13.85;;;-1.10;47.20;;;;;;5025077;28;20268;-70
2022/03/01 00:07:30;;;;;;;21.15;11.88;;;-1.10;47.60;;;;;;5026893;28;20202;-67
2022/03/01 00:09:57;;;;;;;19.17;12.27;;;-1.10;48.00;;;;;;5025173;28;20249;-67
2022/03/01 00:12:24;;;;;;;20.30;11.32;;;-1.10;48.10;;;;;;5028920;28;20329;-68
2022/03/01 00:14:53;;;;;;;17.63;11.02;;;-1.00;47.90;;;;;;5029749;28;20324;-68
2022/03/01 00:17:20;;;;;;;21.88;11.40;;;-1.10;47.70;;;;;;5025196;28;20564;-68
2022/03/01 00:19:47;;;;;;;22.10;11.27;;;-1.10;48.00;;;;;;5025298;28;20191;-67
2022/03/01 00:22:14;;;;;;;17.23;10.32;;;-1.00;48.60;;;;;;5026130;28;20283;-67
2022/03/01 00:24:41;;;;;;;22.20;11.35;;;-1.10;48.10;;;;;;5022942;28;20606;-70
2022/03/01 00:27:08;;;;;;;17.88;10.98;;;-1.20;47.90;;;;;;5029384;28;20184;-67
2022/03/01 00:29:36;;;;;;;15.35;10.55;;;-1.20;47.90;;;;;;5026827;28;20558;-67
2022/03/01 00:32:05;;;;;;;18.60;10.95;;;-1.30;48.40;;;;;;5025309;28;20222;-67
2022/03/01 00:34:33;;;;;;;16.50;10.90;;;-1.30;48.60;;;;;;5025198;28;20638;-67
2022/03/01 00:37:00;;;;;;;20.73;10.32;;;-1.30;48.80;;;;;;5027956;28;20183;-67
2022/03/01 00:39:27;;;;;;;16.15;10.25;;;-1.40;48.60;;;;;;5029027;28;20241;-67
2022/03/01 00:41:54;;;;;;;15.95;9.70;;;-1.30;49.30;;;;;;5028777;28;20245;-67
2022/03/01 00:44:22;;;;;;;18.92;11.80;;;-1.40;49.40;;;;;;5023857;28;20673;-67
2022/03/01 00:46:48;;;;;;;24.20;11.80;;;-1.40;49.10;;;;;;5028264;28;20663;-69
2022/03/01 00:49:17;;;;;;;18.08;10.88;;;-1.40;49.60;;;;;;5020384;28;20253;-73
2022/03/01 00:51:44;;;;;;;16.27;9.40;;;-1.40;49.20;;;;;;5023421;28;20223;-67
2022/03/01 00:54:11;;;;;;;13.77;9.20;;;-1.40;49.20;;;;;;5013345;28;20215;-67
2022/03/01 00:56:38;;;;;;;19.52;11.60;;;-1.40;49.40;;;;;;5010815;28;20199;-68
2022/03/01 00:59:05;;;;;;;16.00;9.35;;;-1.40;50.00;;;;;;5028796;28;20195;-67
2022/03/01 01:01:32;;;;;;;19.30;10.57;;;-1.40;50.00;;;;;;5016087;28;20214;-67
2022/03/01 01:03:59;;;;;;;18.58;9.63;;;-1.50;49.80;;;;;;5010421;28;20255;-67
2022/03/01 01:06:28;;;;;;;15.40;9.88;;;-1.60;49.50;;;;;;5022811;28;20631;-68
2022/03/01 01:08:55;;;;;;;19.38;12.00;;;-1.60;49.00;;;;;;5030835;28;20195;-67
2022/03/01 01:11:23;;;;;;;14.77;9.88;;;-1.70;49.30;;;;;;5029871;28;20662;-67
2022/03/01 01:13:51;;;;;;;14.07;9.00;;;-1.70;49.50;;;;;;5030483;28;20227;-74
2022/03/01 01:16:18;;;;;;;13.40;8.80;;;-1.80;49.70;;;;;;5029900;28;20218;-68
2022/03/01 01:18:45;;;;;;;13.43;8.80;;;-1.80;50.00;;;;;;5030620;28;20195;-67
2022/03/01 01:21:13;;;;;;;15.48;8.13;;;-1.80;50.20;;;;;;5021435;28;20190;-67
2022/03/01 01:23:42;;;;;;;12.77;8.85;;;-1.80;50.30;;;;;;5010228;28;20588;-67
2022/03/01 01:26:09;;;;;;;15.68;9.30;;;-1.80;50.50;;;;;;5018423;28;20191;-67
2022/03/01 01:28:37;;;;;;;15.70;9.38;;;-1.90;50.30;;;;;;5029612;28;20195;-67
2022/03/01 01:31:10;;;;;;;14.48;9.10;;;-1.90;50.00;;;;;;5020321;28;20793;-67
2022/03/01 01:33:37;;;;;;;20.38;10.25;;;-1.90;50.00;;;;;;5009751;28;20689;-67
2022/03/01 01:36:04;;;;;;;13.73;8.52;;;-2.00;50.50;;;;;;5017439;28;20190;-67
2022/03/01 01:38:31;;;;;;;17.55;9.52;;;-2.00;50.80;;;;;;5029749;28;20244;-67
2022/03/01 01:40:59;;;;;;;19.88;10.90;;;-2.00;50.50;;;;;;5029124;28;20235;-67
2022/03/01 01:43:26;;;;;;;16.73;9.32;;;-2.00;50.80;;;;;;5029763;28;20260;-67
2022/03/01 01:45:53;;;;;;;17.45;10.65;;;-2.00;50.80;;;;;;5023494;28;20590;-68
2022/03/01 01:48:20;;;;;;;19.58;10.63;;;-1.90;51.00;;;;;;5010030;28;20315;-67
2022/03/01 01:50:48;;;;;;;18.10;10.25;;;-1.90;51.00;;;;;;5010431;28;20250;-71
2022/03/01 01:53:15;;;;;;;12.68;8.80;;;-1.90;50.70;;;;;;5009426;28;20676;-67
2022/03/01 01:55:42;;;;;;;13.45;9.40;;;-2.00;50.40;;;;;;5012469;28;20498;-67
2022/03/01 01:58:10;;;;;;;12.75;8.45;;;-2.00;51.00;;;;;;5028785;28;20191;-67
2022/03/01 02:00:39;;;;;;;11.88;8.07;;;-2.00;50.50;;;;;;5026612;28;20599;-67
2022/03/01 02:03:06;;;;;;;14.10;7.20;;;-2.10;51.00;;;;;;5009110;28;20584;-67
2022/03/01 02:05:33;;;;;;;13.13;8.07;;;-2.10;51.10;;;;;;5009194;28;20195;-67
2022/03/01 02:08:00;;;;;;;14.18;10.02;;;-2.10;50.90;;;;;;5028913;28;20191;-68
2022/03/01 02:10:26;;;;;;;11.45;7.60;;;-2.10;51.20;;;;;;5028483;28;20187;-68
2022/03/01 02:12:56;;;;;;;12.50;9.07;;;-2.10;51.20;;;;;;5027551;28;20254;-67
2022/03/01 02:15:25;;;;;;;19.80;9.70;;;-2.10;51.60;;;;;;5028751;28;20606;-68
2022/03/01 02:17:52;;;;;;;18.88;13.02;;;-2.00;52.20;;;;;;5010158;28;20188;-68
2022/03/01 02:20:22;;;;;;;15.95;8.98;;;-2.00;52.30;;;;;;5021942;28;20270;-70
2022/03/01 02:22:54;;;;;;;16.02;9.82;;;-2.00;52.70;;;;;;5028485;28;20356;-67
2022/03/01 02:25:21;;;;;;;14.25;9.73;;;-2.00;52.20;;;;;;5028170;28;20187;-67
2022/03/01 02:27:48;;;;;;;18.83;8.40;;;-2.10;52.10;;;;;;5027719;28;20301;-67
2022/03/01 02:30:15;;;;;;;17.90;9.55;;;-2.10;50.80;;;;;;5028659;28;20245;-67
2022/03/01 02:32:43;;;;;;;16.77;9.52;;;-2.10;50.80;;;;;;5020591;28;20184;-67
2022/03/01 02:35:12;;;;;;;15.07;9.45;;;-2.20;51.20;;;;;;5008727;28;20207;-67
2022/03/01 02:37:41;;;;;;;13.57;8.85;;;-2.30;51.10;;;;;;5008380;28;20258;-67
2022/03/01 02:40:09;;;;;;;16.52;8.73;;;-2.30;50.70;;;;;;5012131;28;20257;-67
2022/03/01 02:42:37;;;;;;;11.52;7.82;;;-2.40;50.50;;;;;;5028291;28;20338;-67
2022/03/01 02:45:05;;;;;;;13.25;8.63;;;-2.50;50.60;;;;;;5028402;28;20683;-70
2022/03/01 02:47:32;;;;;;;13.02;8.23;;;-2.50;50.40;;;;;;5028113;28;20257;-67
2022/03/01 02:49:59;;;;;;;15.32;9.48;;;-2.60;50.70;;;;;;5028430;28;20249;-67
2022/03/01 02:52:26;;;;;;;14.77;8.82;;;-2.60;50.90;;;;;;5027652;28;20180;-67
2022/03/01 02:54:54;;;;;;;11.00;8.15;;;-2.70;51.60;;;;;;5028176;28;20204;-67
2022/03/01 02:57:22;;;;;;;11.60;7.45;;;-2.70;52.00;;;;;;5027882;28;20550;-67
2022/03/01 02:59:49;;;;;;;12.45;7.45;;;;;;;;;;5009972;28;20194;-67
2022/03/01 03:02:16;;;;;;;16.33;8.40;;;-2.70;52.20;;;;;;5008780;28;20265;-67
2022/03/01 03:04:44;;;;;;;15.88;8.20;;;-2.70;52.30;;;;;;5008750;28;20672;-67
2022/03/01 03:07:11;;;;;;;11.85;7.75;;;-2.70;52.50;;;;;;5009508;28;20283;-67
2022/03/01 03:09:38;;;;;;;19.00;8.75;;;-2.60;52.70;;;;;;5028070;28;20214;-67
2022/03/01 03:12:08;;;;;;;17.55;9.18;;;-2.70;52.80;;;;;;5027959;28;20283;-67
2022/03/01 03:14:35;;;;;;;16.33;9.80;;;-2.80;53.10;;;;;;5028077;28;20412;-67
2022/03/01 03:17:02;;;;;;;13.80;8.88;;;-2.80;52.70;;;;;;5028305;28;20281;-67
2022/03/01 03:19:29;;;;;;;13.65;7.15;;;-2.80;53.10;;;;;;5028337;28;20241;-67
2022/03/01 03:21:56;;;;;;;11.65;7.25;;;-2.80;53.30;;;;;;5029231;28;20218;-67
2022/03/01 03:24:23;;;;;;;13.38;6.85;;;-2.80;53.30;;;;;;5031919;28;20199;-67
2022/03/01 03:26:50;;;;;;;13.00;8.75;;;-2.80;53.30;;;;;;5022881;28;20187;-67
2022/03/01 03:29:19;;;;;;;13.48;7.50;;;-2.70;53.30;;;;;;5017386;28;20538;-68
2022/03/01 03:31:46;;;;;;;17.08;9.68;;;-2.70;53.60;;;;;;5012601;28;20276;-67
2022/03/01 03:34:13;;;;;;;17.80;9.55;;;-2.80;53.90;;;;;;5024344;28;20239;-67
2022/03/01 03:36:42;;;;;;;16.27;9.07;;;-2.80;53.80;;;;;;5030905;28;20199;-67
2022/03/01 03:39:11;;;;;;;15.32;8.38;;;-2.80;54.00;;;;;;5031278;28;20545;-67
2022/03/01 03:41:38;;;;;;;13.35;8.32;;;-2.70;54.20;;;;;;5031398;28;20618;-67
2022/03/01 03:44:06;;;;;;;16.45;8.55;;;-2.70;53.90;;;;;;5019843;28;20346;-67
2022/03/01 03:46:35;;;;;;;13.40;7.93;;;-2.70;53.70;;;;;;5010932;28;20204;-67
2022/03/01 03:49:03;;;;;;;14.68;8.90;;;-2.70;53.50;;;;;;5021282;28;20274;-67
2022/03/01 03:51:30;;;;;;;16.73;9.77;;;-2.70;53.10;;;;;;5031137;28;20195;-67
2022/03/01 03:53:57;;;;;;;16.13;8.85;;;-2.80;53.70;;;;;;5030156;28;20225;-67
2022/03/01 03:56:24;;;;;;;11.10;7.63;;;-2.90;53.90;;;;;;5030979;28;20283;-67
2022/03/01 03:58:51;;;;;;;11.73;6.75;;;-3.00;54.50;;;;;;5022923;28;20215;-68
2022/03/01 04:01:18;;;;;;;15.00;8.55;;;-3.00;54.80;;;;;;5010742;28;20192;-67
2022/03/01 04:03:47;;;;;;;10.55;7.65;;;-3.10;54.90;;;;;;5017798;28;20680;-67
2022/03/01 04:06:14;;;;;;;11.07;7.18;;;-3.20;54.40;;;;;;5031486;28;20261;-67
2022/03/01 04:08:41;;;;;;;16.85;8.57;;;-3.20;54.50;;;;;;5025611;28;20188;-67
2022/03/01 04:11:08;;;;;;;13.27;8.48;;;-3.20;54.40;;;;;;5014152;28;20218;-67
2022/03/01 04:13:35;;;;;;;13.02;8.55;;;-3.20;54.30;;;;;;5031028;28;20300;-67
2022/03/01 04:16:02;;;;;;;14.00;8.82;;;-3.20;54.30;;;;;;5028669;28;20283;-67
2022/03/01 04:18:29;;;;;;;13.32;7.47;;;-3.20;54.30;;;;;;5011078;28;20246;-71
2022/03/01 04:20:57;;;;;;;12.60;8.38;;;-3.10;54.10;;;;;;5011440;28;20184;-68
2022/03/01 04:23:24;;;;;;;11.88;7.88;;;-3.10;54.40;;;;;;5011167;28;20273;-67
2022/03/01 04:25:51;;;;;;;12.80;8.35;;;-3.20;54.40;;;;;;5010805;28;20192;-67
2022/03/01 04:28:19;;;;;;;14.32;7.47;;;-3.20;55.00;;;;;;5029656;28;20210;-67
2022/03/01 04:30:46;;;;;;;10.13;6.90;;;-3.20;54.10;;;;;;5030227;28;20201;-67
2022/03/01 04:33:13;;;;;;;12.63;7.57;;;-3.30;53.70;;;;;;5011159;28;20188;-68
2022/03/01 04:35:40;;;;;;;14.30;8.18;;;-3.40;53.30;;;;;;5010118;28;20187;-67
2022/03/01 04:38:09;;;;;;;11.50;7.20;;;-3.40;54.10;;;;;;5027268;28;20293;-67
2022/03/01 04:40:36;;;;;;;17.33;8.75;;;-3.40;54.40;;;;;;5029668;28;20296;-67
2022/03/01 04:43:03;;;;;;;18.67;8.63;;;-3.40;53.90;;;;;;5030063;28;20301;-67
2022/03/01 04:45:30;;;;;;;16.45;8.13;;;-3.40;53.40;;;;;;5029766;28;20187;-67
2022/03/01 04:47:57;;;;;;;15.88;8.10;;;-3.40;53.30;;;;;;5015546;28;20187;-67
2022/03/01 04:50:24;;;;;;;14.77;7.10;;;-3.50;53.20;;;;;;5009969;28;20238;-67
2022/03/01 04:52:51;;;;;;;14.25;7.88;;;-3.50;53.30;;;;;;5010238;28;20201;-67
2022/03/01 04:55:20;;;;;;;12.93;7.82;;;-3.60;53.00;;;;;;5010283;28;20195;-68
2022/03/01 04:57:47;;;;;;;16.52;6.88;;;-3.60;53.30;;;;;;5009942;28;20203;-67
2022/03/01 05:00:15;;;;;;;14.38;7.65;;;-3.60;53.20;;;;;;5010113;28;20341;-67
2022/03/01 05:02:45;;;;;;;14.05;8.32;;;-3.70;52.80;;;;;;5020254;28;20203;-67
2022/03/01 05:05:13;;;;;;;12.00;7.38;;;-3.70;53.90;;;;;;5030185;28;20274;-67
2022/03/01 05:07:41;;;;;;;16.35;8.63;;;-3.70;54.30;;;;;;5029130;28;20245;-67
2022/03/01 05:10:09;;;;;;;13.98;8.98;;;-3.70;54.60;;;;;;5029836;28;20202;-67
2022/03/01 05:12:45;;;;;;;14.65;9.20;;;-3.70;54.40;;;;;;5030072;28;20288;-67
2022/03/01 05:15:13;;;;;;;13.60;8.98;;;-3.70;55.10;;;;;;5030301;28;20222;-67
2022/03/01 05:17:40;;;;;;;15.02;9.52;;;-3.70;55.00;;;;;;5030139;28;20191;-67
2022/03/01 05:20:09;;;;;;;14.95;8.05;;;-3.70;55.40;;;;;;5030166;28;20222;-68
2022/03/01 05:22:36;;;;;;;13.90;8.40;;;-3.70;55.80;;;;;;5029258;28;20613;-67
2022/03/01 05:25:05;;;;;;;14.15;7.50;;;-3.70;55.80;;;;;;5029951;28;20195;-67
2022/03/01 05:27:32;;;;;;;14.20;8.75;;;-3.70;55.60;;;;;;5013888;28;20235;-67
2022/03/01 05:30:00;;;;;;;13.80;8.52;;;-3.70;55.30;;;;;;5010285;28;20356;-67
2022/03/01 05:32:27;;;;;;;13.02;7.82;;;-3.70;54.80;;;;;;5009784;28;20322;-67
2022/03/01 05:34:54;;;;;;;14.80;8.15;;;-3.70;54.60;;;;;;5017314;28;20306;-67
2022/03/01 05:37:21;;;;;;;13.25;7.60;;;-3.70;54.90;;;;;;5029036;28;20203;-67
2022/03/01 05:39:59;;;;;;;16.38;9.15;;;-3.80;55.00;;;;;;5027967;28;20195;-68
2022/03/01 05:42:26;;;;;;;20.90;9.93;;;-3.80;55.60;;;;;;5026369;28;20210;-67
2022/03/01 05:44:55;;;;;;;16.95;9.55;;;-3.80;55.60;;;;;;5028033;28;20236;-67
2022/03/01 05:47:24;;;;;;;16.63;10.10;;;-3.80;55.50;;;;;;5029344;28;20246;-67
2022/03/01 05:49:51;;;;;;;15.82;8.77;;;-3.80;55.10;;;;;;5029228;28;20195;-67
2022/03/01 05:52:18;;;;;;;18.33;9.68;;;-3.90;54.60;;;;;;5027316;28;20237;-67
2022/03/01 05:54:45;;;;;;;18.20;10.73;;;-3.90;55.10;;;;;;5019008;28;20704;-67
2022/03/01 05:57:12;;;;;;;23.52;11.82;;;-3.90;55.30;;;;;;5026563;28;20183;-67
2022/03/01 05:59:39;;;;;;;17.02;10.63;;;-3.80;55.60;;;;;;5024751;28;20735;-68
2022/03/01 06:02:06;;;;;;;18.83;9.63;;;-3.80;55.80;;;;;;5022266;28;20199;-67
2022/03/01 06:04:35;;;;;;;17.63;10.07;;;-3.80;55.60;;;;;;5025476;28;20221;-68
2022/03/01 06:07:02;;;;;;;17.75;10.60;;;-3.80;55.40;;;;;;5026924;28;20748;-68
2022/03/01 06:09:29;;;;;;;20.70;10.70;;;-3.80;54.80;;;;;;5026623;28;20191;-77
2022/03/01 06:11:56;;;;;;;15.98;9.73;;;-3.80;54.70;;;;;;5024227;28;20651;-67
2022/03/01 06:14:24;;;;;;;23.45;11.25;;;-3.80;54.80;;;;;;5026578;28;20718;-67
2022/03/01 06:16:51;;;;;;;14.40;9.60;;;-3.80;55.00;;;;;;5025858;28;20194;-68
2022/03/01 06:19:18;;;;;;;19.83;11.75;;;-3.80;55.80;;;;;;5021373;28;20213;-67
2022/03/01 06:21:46;;;;;;;17.90;10.70;;;-3.80;55.80;;;;;;5024125;28;20199;-67
2022/03/01 06:24:14;;;;;;;20.95;10.65;;;-3.80;56.30;;;;;;5018068;28;20218;-67
2022/03/01 06:26:41;;;;;;;20.73;10.65;;;-3.70;56.90;;;;;;5026343;28;20195;-67
2022/03/01 06:29:08;;;;;;;16.83;10.93;;;-3.60;56.60;;;;;;5026612;28;20187;-67
2022/03/01 06:31:35;;;;;;;18.70;11.10;;;-3.50;56.90;;;;;;5027242;28;20202;-72
2022/03/01 06:34:02;;;;;;;18.23;10.60;;;-3.40;56.70;;;;;;5027538;28;20195;-72
2022/03/01 06:36:30;;;;;;;23.60;12.73;;;-3.30;56.80;;;;;;5027419;28;20191;-67
2022/03/01 06:38:58;;;;;;;19.73;11.98;;;-3.10;56.60;;;;;;5027377;28;20278;-67
2022/03/01 06:41:25;;;;;;;22.45;12.43;;;-2.90;56.50;;;;;;5026962;28;20194;-67
2022/03/01 06:43:52;;;;;;;19.23;12.57;;;-2.70;55.90;;;;;;5027643;28;20218;-68
2022/03/01 06:46:20;;;;;;;17.13;10.38;;;-2.50;55.50;;;;;;5026604;28;20195;-67
2022/03/01 06:48:47;;;;;;;24.73;11.65;;;-2.30;55.30;;;;;;5028072;28;20221;-67
2022/03/01 06:51:14;;;;;;;15.25;10.18;;;-2.10;54.80;;;;;;5025511;28;20246;-67
2022/03/01 06:53:42;;;;;;;16.98;10.75;;;-1.70;54.10;;;;;;5026410;28;20534;-68
2022/03/01 06:56:10;;;;;;;20.42;10.32;;;-1.40;53.80;;;;;;5025211;28;20553;-67
2022/03/01 06:58:38;;;;;;;12.88;9.57;;;-1.20;53.30;;;;;;5031179;28;20214;-67
2022/03/01 07:01:05;;;;;;;18.63;10.25;;;-0.80;52.70;;;;;;5032404;28;20199;-67
2022/03/01 07:03:34;;;;;;;16.17;9.95;;;-0.40;52.00;;;;;;5033010;28;20273;-68
2022/03/01 07:06:01;;;;;;;18.75;9.20;;;0.30;51.30;;;;;;5032804;28;20193;-71
2022/03/01 07:08:28;;;;;;;23.25;12.43;;;0.70;49.90;;;;;;5033734;28;20203;-68
2022/03/01 07:10:55;;;;;;;16.02;9.73;;;1.10;48.70;;;;;;5030884;28;20666;-67
2022/03/01 07:13:23;;;;;;;15.93;9.05;;;1.50;47.30;;;;;;5023440;28;20699;-67
2022/03/01 07:15:50;;;;;;;15.15;9.05;;;;;;;;;;5033641;28;20204;-68
2022/03/01 07:18:17;;;;;;;13.00;9.80;;;1.90;45.50;;;;;;5034166;28;20191;-68
2022/03/01 07:20:44;;;;;;;18.13;10.05;;;3.10;44.50;;;;;;5033641;28;20187;-68
2022/03/01 07:23:11;;;;;;;17.20;8.77;;;4.00;42.60;;;;;;5028700;28;20254;-67
2022/03/01 07:25:39;;;;;;;13.60;7.82;;;4.90;41.60;;;;;;5028747;28;20188;-68
2022/03/01 07:28:06;;;;;;;13.68;8.18;;;5.70;38.90;;;;;;5023561;28;20602;-69
2022/03/01 07:30:35;;;;;;;11.23;7.50;;;6.40;37.70;;;;;;5031410;28;20290;-69
2022/03/01 07:33:02;;;;;;;11.48;8.68;;;7.20;35.70;;;;;;5032026;28;20269;-68
2022/03/01 07:35:29;;;;;;;13.98;8.07;;;8.00;33.30;;;;;;5024606;28;20665;-67
2022/03/01 07:37:57;;;;;;;14.93;9.75;;;8.70;32.20;;;;;;5029825;28;20241;-68
2022/03/01 07:40:26;;;;;;;14.73;8.98;;;9.40;30.70;;;;;;5028672;28;20229;-68
2022/03/01 07:42:54;;;;;;;25.45;15.10;;;10.20;29.50;;;;;;5029688;28;20188;-70
2022/03/01 07:45:21;;;;;;;12.80;7.95;;;11.40;27.80;;;;;;5031530;28;20597;-68
2022/03/01 07:47:49;;;;;;;12.27;8.60;;;12.40;26.50;;;;;;5032773;28;20218;-70
2022/03/01 07:50:17;;;;;;;11.70;8.90;;;13.40;24.60;;;;;;5028667;28;20199;-68
2022/03/01 07:52:44;;;;;;;13.57;9.23;;;14.30;23.80;;;;;;5033687;28;20249;-68
2022/03/01 07:55:10;;;;;;;13.57;9.02;;;15.20;22.60;;;;;;5033599;28;20260;-68
2022/03/01 07:57:37;;;;;;;11.88;9.63;;;16.10;22.00;;;;;;5032729;28;20195;-70
2022/03/01 08:00:06;;;;;;;13.98;9.77;;;17.00;20.80;;;;;;5029070;28;20191;-69
2022/03/01 08:02:33;;;;;;;13.98;9.82;;;17.70;20.10;;;;;;5033258;28;20569;-68
2022/03/01 08:05:01;;;;;;;14.52;8.77;;;18.50;19.40;;;;;;5033129;28;20265;-68
2022/03/01 08:07:29;;;;;;;12.30;9.23;;;19.20;18.20;;;;;;5032133;28;20234;-69
2022/03/01 08:09:56;;;;;;;11.95;8.77;;;19.80;17.90;;;;;;5033174;28;20202;-69
2022/03/01 08:12:23;;;;;;;13.10;9.65;;;20.30;17.00;;;;;;5033317;28;20557;-69
2022/03/01 08:14:50;;;;;;;11.53;10.20;;;20.90;16.00;;;;;;5032404;28;20380;-68
2022/03/01 08:17:17;;;;;;;12.43;9.23;;;21.60;15.90;;;;;;5031278;28;20543;-66
2022/03/01 08:19:44;;;;;;;9.70;8.30;;;22.30;15.40;;;;;;5031670;28;20430;-66
2022/03/01 08:22:12;;;;;;;10.23;9.00;;;23.10;14.60;;;;;;5031704;28;20504;-66
2022/03/01 08:24:39;;;;;;;13.30;10.10;;;23.70;13.90;;;;;;5032057;28;20553;-66
2022/03/01 08:27:06;;;;;;;11.00;9.03;;;24.40;14.10;;;;;;5031939;28;20551;-66
2022/03/01 08:29:33;;;;;;;11.90;9.23;;;25.10;13.30;;;;;;5033094;28;20500;-66
2022/03/01 08:32:00;;;;;;;13.70;9.90;;;25.60;13.00;;;;;;5033036;28;20449;-67
2022/03/01 08:34:27;;;;;;;13.90;9.10;;;26.00;12.50;;;;;;5032878;28;20521;-70
2022/03/01 08:36:54;;;;;;;10.80;9.20;;;26.70;12.80;;;;;;5032802;28;20853;-66
2022/03/01 08:39:30;;;;;;;11.20;9.27;;;27.60;11.40;;;;;;5032987;28;20496;-70
2022/03/01 08:41:57;;;;;;;13.80;9.20;;;28.50;12.20;;;;;;5032967;28;20481;-67
2022/03/01 08:44:24;;;;;;;11.43;9.20;;;29.40;11.30;;;;;;5028533;28;20461;-66
2022/03/01 08:46:51;;;;;;;10.20;8.80;;;30.00;10.70;;;;;;5033224;28;20442;-67
2022/03/01 08:49:18;;;;;;;11.70;8.97;;;30.60;10.90;;;;;;5032809;28;20480;-67
2022/03/01 08:51:45;;;;;;;13.30;9.57;;;31.30;9.80;;;;;;5032616;28;20443;-70
2022/03/01 08:54:12;;;;;;;9.87;8.87;;;31.90;9.70;;;;;;5028679;28;20513;-67
2022/03/01 08:56:40;;;;;;;16.93;9.37;;;32.40;8.70;;;;;;5032891;28;20550;-67
2022/03/01 08:59:07;;;;;;;9.43;8.43;;;32.50;8.90;;;;;;5032529;28;20789;-66
2022/03/01 09:01:34;;;;;;;14.00;9.27;;;32.50;8.00;;;;;;5032360;28;20496;-68
2022/03/01 09:04:05;;;;;;;9.30;8.40;;;32.80;7.30;;;;;;5032380;28;20477;-67
2022/03/01 09:06:32;;;;;;;11.33;8.40;;;33.10;7.70;;;;;;5032590;28;20476;-67
2022/03/01 09:08:59;;;;;;;10.23;8.67;;;33.50;7.50;;;;;;5032273;28;20467;-67
2022/03/01 09:11:26;;;;;;;9.80;8.80;;;33.90;7.30;;;;;;5032267;28;20823;-67
2022/03/01 09:13:54;;;;;;;11.20;8.67;;;34.10;7.20;;;;;;5032175;28;20551;-67
2022/03/01 09:16:21;;;;;;;10.57;8.63;;;34.60;7.50;;;;;;5032389;28;20442;-67
2022/03/01 09:18:48;;;;;;;9.90;8.90;;;35.20;6.70;;;;;;5032046;28;20441;-68
2022/03/01 09:21:15;;;;;;;10.40;8.63;;;35.50;7.10;;;;;;5028344;28;20951;-67
2022/03/01 09:23:43;;;;;;;10.03;9.00;;;36.00;6.00;;;;;;5032447;28;20474;-67
2022/03/01 09:26:10;;;;;;;10.30;9.13;;;36.10;7.00;;;;;;5032472;28;21556;-67
2022/03/01 09:28:38;;;;;;;9.33;8.33;;;36.60;6.60;;;;;;5032028;28;20472;-68
2022/03/01 09:31:06;;;;;;;10.10;9.20;;;36.80;6.20;;;;;;5032258;28;20464;-67
2022/03/01 09:33:33;;;;;;;10.17;9.17;;;37.00;5.80;;;;;;5032127;28;20841;-67
2022/03/01 09:36:01;;;;;;;10.37;9.20;;;37.50;6.20;;;;;;5032181;28;20445;-67
2022/03/01 09:38:27;;;;;;;10.07;8.80;;;38.20;5.80;;;;;;5031548;28;20499;-67
2022/03/01 09:40:54;;;;;;;10.37;8.63;;;38.50;5.70;;;;;;5032060;28;20438;-67
2022/03/01 09:43:22;;;;;;;10.67;9.03;;;38.30;4.40;;;;;;5031932;28;20477;-68
2022/03/01 09:45:49;;;;;;;10.77;9.00;;;38.40;4.90;;;;;;5032077;28;20441;-67
2022/03/01 09:48:17;;;;;;;10.67;9.47;;;38.70;5.10;;;;;;5031547;28;20438;-67
2022/03/01 09:50:46;;;;;;;10.60;8.80;;;39.10;5.30;;;;;;5031919;28;20937;-68
2022/03/01 09:53:13;;;;;;;9.90;8.87;;;39.70;4.90;;;;;;5032030;28;20469;-68
2022/03/01 09:55:41;;;;;;;12.70;10.27;;;40.20;4.30;;;;;;5031580;28;20468;-68
2022/03/01 09:58:09;;;;;;;11.40;9.80;;;40.50;4.20;;;;;;5027736;28;20445;-67
2022/03/01 10:00:36;;;;;;;10.17;9.17;;;40.60;3.80;;;;;;5031507;28;20497;-67
2022/03/01 10:03:03;;;;;;;10.40;9.20;;;40.60;4.30;;;;;;5031616;28;20983;-67
2022/03/01 10:05:37;;;;;;;10.33;9.27;;;40.40;4.00;;;;;;5031145;28;20559;-67
2022/03/01 10:08:09;;;;;;;11.30;10.20;;;40.20;3.80;;;;;;5031174;28;20495;-67
2022/03/01 10:10:41;;;;;;;11.40;8.90;;;40.80;4.30;;;;;;5031479;28;20449;-69
2022/03/01 10:13:08;;;;;;;10.90;9.80;;;41.40;4.10;;;;;;5027573;28;20437;-68
2022/03/01 10:15:36;;;;;;;10.50;9.40;;;41.90;3.80;;;;;;5031611;28;20441;-67
2022/03/01 10:18:14;;;;;;;12.60;10.00;;;42.00;4.20;;;;;;5031305;28;20446;-68
2022/03/01 10:20:45;;;;;;;10.10;9.20;;;42.70;4.20;;;;;;5028405;28;20488;-68
2022/03/01 10:23:13;;;;;;;12.00;9.73;;;43.30;3.90;;;;;;5031511;28;20438;-68
2022/03/01 10:25:42;;;;;;;10.83;9.80;;;43.60;3.80;;;;;;5030824;28;20535;-68
2022/03/01 10:28:10;;;;;;;10.50;9.43;;;43.90;3.40;;;;;;5030952;28;20442;-68
2022/03/01 10:30:39;;;;;;;9.47;8.60;;;44.10;3.50;;;;;;5031050;28;20508;-68
2022/03/01 10:33:08;;;;;;;9.27;8.37;;;44.40;3.50;;;;;;5030967;28;20500;-69
2022/03/01 10:35:35;;;;;;;10.20;8.97;;;44.30;3.10;;;;;;5027474;28;20507;-68
2022/03/01 10:38:05;;;;;;;11.07;9.27;;;44.20;3.10;;;;;;5031381;28;20450;-68
2022/03/01 10:40:33;;;;;;;10.03;9.03;;;44.50;3.40;;;;;;5030969;28;20936;-69
2022/03/01 10:43:02;;;;;;;9.47;8.60;;;44.60;3.20;;;;;;5030977;28;20527;-68
2022/03/01 10:45:39;;;;;;;12.20;9.07;;;45.00;3.10;;;;;;5030943;28;20537;-68
2022/03/01 10:48:08;;;;;;;10.27;8.67;;;45.30;3.10;;;;;;5030473;28;20495;-68
2022/03/01 10:50:36;;;;;;;9.10;8.03;;;45.60;2.50;;;;;;5031281;28;20781;-68
2022/03/01 10:53:05;;;;;;;8.80;8.00;;;45.30;2.10;;;;;;5031267;28;20473;-68
2022/03/01 10:55:34;;;;;;;7.90;7.20;;;44.90;2.70;;;;;;5030714;28;20442;-69
2022/03/01 10:58:04;;;;;;;9.93;8.93;;;45.20;2.70;;;;;;5027144;28;20472;-68
2022/03/01 11:00:32;;;;;;;10.23;9.07;;;45.50;2.40;;;;;;5031193;28;20505;-68
2022/03/01 11:02:59;;;;;;;9.50;8.00;;;45.30;2.50;;;;;;5031076;28;20437;-68
2022/03/01 11:05:30;;;;;;;9.73;8.50;;;45.50;2.30;;;;;;5030568;28;20481;-68
2022/03/01 11:08:22;;;;;;;9.30;8.40;;;45.90;2.60;;;;;;5030880;28;20446;-69
2022/03/01 11:10:50;;;;;;;9.07;8.20;;;46.20;2.50;;;;;;5031082;28;20453;-68
2022/03/01 11:13:20;;;;;;;9.27;7.80;;;46.60;2.70;;;;;;5030728;28;20562;-71
2022/03/01 11:16:07;;;;;;;9.10;8.20;;;46.80;3.10;;;;;;5029372;28;20539;-68
2022/03/01 11:18:43;;;;;;;9.60;8.70;;;46.70;2.30;;;;;;5030650;28;20507;-71
2022/03/01 11:21:11;;;;;;;9.57;8.70;;;46.90;2.40;;;;;;5031036;28;20913;-68
2022/03/01 11:23:43;;;;;;;9.50;7.47;;;46.70;2.10;;;;;;5030934;28;20827;-68
2022/03/01 11:26:11;;;;;;;7.90;7.30;;;46.80;2.10;;;;;;5030583;28;20606;-68
2022/03/01 11:28:41;;;;;;;9.43;7.70;;;46.80;2.10;;;;;;5030687;28;20485;-68
2022/03/01 11:31:23;;;;;;;10.00;7.30;;;46.80;2.20;;;;;;5030850;28;20516;-68
2022/03/01 11:33:55;;;;;;;7.67;6.63;;;46.60;2.00;;;;;;5030176;28;20438;-68
2022/03/01 11:36:23;;;;;;;8.77;7.90;;;46.40;1.80;;;;;;5030701;28;20426;-68
2022/03/01 11:38:53;;;;;;;8.03;7.20;;;46.20;2.20;;;;;;5030370;28;20469;-68
2022/03/01 11:41:22;;;;;;;8.63;7.47;;;46.50;2.70;;;;;;5030884;28;20468;-68
2022/03/01 11:43:54;;;;;;;9.20;8.33;;;46.80;2.30;;;;;;5033480;28;20473;-68
2022/03/01 11:46:21;;;;;;;8.73;7.87;;;46.90;2.20;;;;;;5034126;28;20442;-68
2022/03/01 11:48:53;;;;;;;8.67;7.97;;;47.00;1.90;;;;;;5034207;28;20527;-68
2022/03/01 11:51:34;;;;;;;9.73;7.60;;;47.10;1.90;;;;;;5034268;28;20441;-69
2022/03/01 11:54:06;;;;;;;8.70;8.00;;;47.10;1.80;;;;;;5034261;28;20453;-68
2022/03/01 11:56:37;;;;;;;9.30;8.50;;;46.70;2.10;;;;;;5034134;28;20444;-70
2022/03/01 11:59:06;;;;;;;8.23;7.43;;;46.90;1.90;;;;;;5029947;28;20437;-68
2022/03/01 12:01:34;;;;;;;8.70;7.17;;;46.90;1.20;;;;;;5033866;28;20493;-68
2022/03/01 12:04:02;;;;;;;7.50;6.63;;;47.10;1.50;;;;;;5033889;28;20437;-67
2022/03/01 12:06:31;;;;;;;8.00;7.20;;;46.80;1.20;;;;;;5033429;28;20983;-68
2022/03/01 12:08:59;;;;;;;7.30;6.70;;;46.70;1.30;;;;;;5033781;28;20445;-69
2022/03/01 12:11:36;;;;;;;10.13;7.90;;;46.80;1.20;;;;;;5029153;28;20938;-68
2022/03/01 12:14:06;;;;;;;7.37;6.70;;;46.70;1.00;;;;;;5024405;28;20462;-68
2022/03/01 12:16:34;;;;;;;8.00;7.20;;;46.60;1.00;;;;;;5032589;28;20449;-68
2022/03/01 12:19:09;;;;;;;7.07;6.10;;;46.40;1.00;;;;;;5030001;28;20480;-68
2022/03/01 12:21:37;;;;;;;6.77;6.03;;;46.00;1.00;;;;;;5029828;28;20795;-68
2022/03/01 12:24:06;;;;;;;6.57;5.90;;;45.90;1.00;;;;;;5031735;28;20445;-78
2022/03/01 12:26:43;;;;;;;6.00;5.40;;;45.80;1.00;;;;;;5029425;28;20497;-68
2022/03/01 12:29:11;;;;;;;6.00;5.50;;;45.60;1.00;;;;;;5029381;28;20491;-69
2022/03/01 12:31:38;;;;;;;6.63;6.03;;;45.50;1.00;;;;;;5027819;28;20426;-70
2022/03/01 12:34:08;;;;;;;6.87;5.80;;;45.20;1.00;;;;;;5032132;28;20444;-68
2022/03/01 12:36:36;;;;;;;7.70;6.23;;;44.30;1.00;;;;;;5030802;28;20912;-71
2022/03/01 12:39:06;;;;;;;6.77;6.07;;;44.00;1.00;;;;;;5027818;28;20528;-71
2022/03/01 12:41:35;;;;;;;5.47;4.97;;;43.90;1.00;;;;;;5032476;28;20434;-68
2022/03/01 12:44:06;;;;;;;5.23;4.53;;;43.80;1.00;;;;;;5027410;28;20446;-80